Time;durP1;ratioP1;P1;durP2;ratioP2;P2;SDS_P1;SDS_P2;PMS_P1;PMS_P2;Temp;Humidity;BMP_temperature;BMP_pressure;BME280_temperature;BME280_humidity;BME280_pressure;Samples;Min_cycle;Max_cycle;Signal;HPM_P1;HPM_P2
2022/12/19 00:01:25;;;;;;;28.10;12.35;;;0.80;99.90;;;;;;4998970;28;20038;-71
2022/12/19 00:04:05;;;;;;;24.83;11.82;;;0.80;99.90;;;;;;5022846;28;20094;-72
2022/12/19 00:06:31;;;;;;;24.05;11.48;;;0.80;99.90;;;;;;5004020;28;20045;-72
2022/12/19 00:08:59;;;;;;;33.77;12.47;;;0.80;99.90;;;;;;5025382;28;20053;-72
2022/12/19 00:11:26;;;;;;;25.60;12.02;;;0.80;99.90;;;;;;5026513;28;20115;-71
2022/12/19 00:13:52;;;;;;;24.95;11.73;;;0.90;99.90;;;;;;5025148;28;20037;-71
2022/12/19 00:16:20;;;;;;;28.47;12.57;;;0.90;99.90;;;;;;5022941;28;20040;-71
2022/12/19 00:18:47;;;;;;;31.50;13.02;;;0.90;99.90;;;;;;5022660;28;20056;-71
2022/12/19 00:21:16;;;;;;;30.90;12.98;;;0.90;99.90;;;;;;5007689;28;20041;-71
2022/12/19 00:23:41;;;;;;;27.77;11.82;;;0.90;99.90;;;;;;5023728;28;20073;-71
2022/12/19 00:26:10;;;;;;;33.07;13.60;;;1.00;99.90;;;;;;5025823;28;20541;-71
2022/12/19 00:28:36;;;;;;;26.17;12.85;;;1.00;99.90;;;;;;5006752;28;20281;-73
2022/12/19 00:31:05;;;;;;;27.30;11.93;;;1.00;99.90;;;;;;5003268;28;20504;-72
2022/12/19 00:33:36;;;;;;;34.70;13.73;;;1.00;99.90;;;;;;5000493;28;20046;-72
2022/12/19 00:36:09;;;;;;;29.77;13.15;;;1.10;99.90;;;;;;5010763;28;20041;-72
2022/12/19 00:38:34;;;;;;;28.40;12.20;;;1.10;99.90;;;;;;5018818;28;20099;-72
2022/12/19 00:41:21;;;;;;;26.90;12.90;;;1.10;99.90;;;;;;5008791;28;20493;-72
2022/12/19 00:43:58;;;;;;;27.27;11.43;;;1.10;99.90;;;;;;5000452;28;20094;-72
2022/12/19 00:46:25;;;;;;;29.05;13.18;;;1.10;99.90;;;;;;5029197;28;20406;-71
2022/12/19 00:48:50;;;;;;;28.27;12.65;;;1.20;99.90;;;;;;5024469;28;20127;-72
2022/12/19 00:51:22;;;;;;;28.53;12.43;;;1.20;99.90;;;;;;5024220;28;20049;-72
2022/12/19 00:53:49;;;;;;;28.77;12.50;;;1.20;99.90;;;;;;5013935;28;20037;-72
2022/12/19 00:56:17;;;;;;;28.98;12.55;;;1.20;99.90;;;;;;5007185;28;20442;-72
2022/12/19 00:58:43;;;;;;;30.30;11.95;;;1.20;99.90;;;;;;4987456;28;20133;-72
2022/12/19 01:01:12;;;;;;;27.17;13.27;;;1.30;99.90;;;;;;5021220;28;20133;-72
2022/12/19 01:03:38;;;;;;;30.50;13.07;;;1.30;99.90;;;;;;5023983;28;20088;-72
2022/12/19 01:06:04;;;;;;;33.37;13.27;;;1.30;99.90;;;;;;5006721;28;20099;-72
2022/12/19 01:08:30;;;;;;;32.38;11.93;;;1.30;99.90;;;;;;5009955;28;20041;-71
2022/12/19 01:10:56;;;;;;;25.83;12.37;;;1.30;99.90;;;;;;5014302;28;20060;-71
2022/12/19 01:13:25;;;;;;;32.20;12.17;;;1.30;99.90;;;;;;5004396;28;20140;-72
2022/12/19 01:15:50;;;;;;;33.80;13.70;;;1.40;99.90;;;;;;5022639;28;20056;-72
2022/12/19 01:18:16;;;;;;;30.03;12.47;;;1.40;99.90;;;;;;5006492;28;20041;-71
2022/12/19 01:20:46;;;;;;;31.17;12.87;;;1.40;99.90;;;;;;5028264;28;20040;-72
2022/12/19 01:23:15;;;;;;;25.85;12.02;;;1.40;99.90;;;;;;5006469;28;20383;-72
2022/12/19 01:25:41;;;;;;;31.05;11.65;;;1.40;99.90;;;;;;5004949;28;20071;-72
2022/12/19 01:28:12;;;;;;;29.27;11.88;;;1.40;99.90;;;;;;4993835;28;20148;-72
2022/12/19 01:30:41;;;;;;;30.85;13.93;;;1.50;99.90;;;;;;5006048;28;20056;-72
2022/12/19 01:33:11;;;;;;;29.73;13.00;;;1.40;99.90;;;;;;5024672;28;20041;-71
2022/12/19 01:35:37;;;;;;;23.17;11.38;;;1.50;99.90;;;;;;5023362;28;20120;-71
2022/12/19 01:38:03;;;;;;;26.77;11.68;;;1.50;99.90;;;;;;5007373;28;20328;-71
2022/12/19 01:40:28;;;;;;;28.73;12.80;;;1.50;99.90;;;;;;5006632;28;20045;-71
2022/12/19 01:42:54;;;;;;;26.30;11.70;;;1.50;99.90;;;;;;5020388;28;20052;-71
2022/12/19 01:45:32;;;;;;;31.47;14.20;;;1.50;99.90;;;;;;5003099;28;20442;-71
2022/12/19 01:48:13;;;;;;;28.13;12.45;;;1.60;99.90;;;;;;5019492;28;20103;-71
2022/12/19 01:50:57;;;;;;;29.52;12.43;;;1.50;99.90;;;;;;5026303;28;20041;-71
2022/12/19 01:53:26;;;;;;;28.13;12.13;;;1.60;99.90;;;;;;5009727;28;20057;-71
2022/12/19 01:55:54;;;;;;;32.28;13.00;;;1.60;99.90;;;;;;5008679;28;20041;-71
2022/12/19 01:58:20;;;;;;;31.35;12.00;;;1.60;99.90;;;;;;5023634;28;20048;-71
2022/12/19 02:00:49;;;;;;;28.67;12.82;;;1.60;99.90;;;;;;5013707;28;20482;-71
2022/12/19 02:03:22;;;;;;;28.98;12.80;;;1.60;99.90;;;;;;5010443;28;20426;-71
2022/12/19 02:05:48;;;;;;;25.25;12.57;;;1.60;99.90;;;;;;5006978;28;20041;-71
2022/12/19 02:08:15;;;;;;;34.13;13.25;;;1.60;99.90;;;;;;4996012;28;20130;-71
2022/12/19 02:10:41;;;;;;;35.13;12.75;;;1.60;99.90;;;;;;5013405;28;20041;-71
2022/12/19 02:13:08;;;;;;;30.47;12.83;;;1.60;99.90;;;;;;5005456;28;20056;-71
2022/12/19 02:15:45;;;;;;;28.70;14.15;;;1.70;99.90;;;;;;5006778;28;20041;-71
2022/12/19 02:18:19;;;;;;;31.58;14.38;;;1.60;99.90;;;;;;5000341;28;20466;-71
2022/12/19 02:20:57;;;;;;;29.25;13.10;;;1.60;99.90;;;;;;5004597;28;20052;-71
2022/12/19 02:23:47;;;;;;;29.45;13.07;;;1.70;99.90;;;;;;5003033;28;20076;-71
2022/12/19 02:26:33;;;;;;;27.88;11.80;;;1.70;99.90;;;;;;5022547;28;20583;-71
2022/12/19 02:28:59;;;;;;;28.33;13.25;;;1.70;99.90;;;;;;5005084;28;20049;-70
2022/12/19 02:31:24;;;;;;;32.87;13.63;;;1.70;99.90;;;;;;5008897;28;20087;-71
2022/12/19 02:33:59;;;;;;;29.87;12.83;;;1.70;99.90;;;;;;5006639;28;20045;-70
2022/12/19 02:36:39;;;;;;;26.15;12.35;;;1.70;99.90;;;;;;5027626;28;20107;-70
2022/12/19 02:39:15;;;;;;;30.25;13.27;;;1.70;99.90;;;;;;5025796;28;20041;-70
2022/12/19 02:41:46;;;;;;;30.00;13.38;;;1.70;99.90;;;;;;5025080;28;20099;-70
2022/12/19 02:44:41;;;;;;;31.55;12.23;;;1.80;99.90;;;;;;5026508;28;20061;-70
2022/12/19 02:47:08;;;;;;;28.02;12.05;;;1.80;99.90;;;;;;5017167;28;20057;-71
2022/12/19 02:49:36;;;;;;;31.52;13.27;;;1.80;99.90;;;;;;5007545;28;20611;-71
2022/12/19 02:52:20;;;;;;;28.95;12.38;;;1.80;99.90;;;;;;5027619;28;20485;-71
2022/12/19 02:54:53;;;;;;;27.52;11.98;;;1.80;99.90;;;;;;5034900;28;20045;-71
2022/12/19 02:57:57;;;;;;;32.20;12.70;;;1.90;99.90;;;;;;5010181;28;20045;-71
2022/12/19 03:00:26;;;;;;;26.83;12.05;;;1.90;99.90;;;;;;5024148;28;20049;-71
2022/12/19 03:03:24;;;;;;;27.25;13.32;;;1.90;99.90;;;;;;5009128;28;20072;-71
2022/12/19 03:05:55;;;;;;;;;;;2.00;99.90;;;;;;5012493;28;20044;-70
2022/12/19 03:08:27;;;;;;;27.27;11.93;;;2.10;99.90;;;;;;5028624;28;19918;-70
2022/12/19 03:10:55;;;;;;;26.42;11.80;;;2.00;99.90;;;;;;5012516;28;20568;-71
2022/12/19 03:13:24;;;;;;;27.55;11.40;;;2.00;99.90;;;;;;5027022;28;20052;-68
2022/12/19 03:15:51;;;;;;;37.72;14.40;;;2.00;99.90;;;;;;5024938;28;20033;-68
2022/12/19 03:18:18;;;;;;;29.48;12.77;;;2.10;99.90;;;;;;5006886;28;20041;-69
2022/12/19 03:20:48;;;;;;;;;;;2.10;99.90;;;;;;5029795;28;20064;-69
2022/12/19 03:23:15;;;;;;;27.92;11.95;;;2.10;99.90;;;;;;5008059;28;19946;-69
2022/12/19 03:25:47;;;;;;;27.77;12.82;;;2.10;99.90;;;;;;5006371;28;20049;-68
2022/12/19 03:28:21;;;;;;;28.00;12.70;;;2.10;99.90;;;;;;5024861;28;20171;-68
2022/12/19 03:30:48;;;;;;;31.52;12.98;;;2.10;99.90;;;;;;5006612;28;20049;-68
2022/12/19 03:33:24;;;;;;;30.05;12.30;;;2.10;99.90;;;;;;5010703;28;20045;-73
2022/12/19 03:35:52;;;;;;;27.00;12.53;;;2.20;99.90;;;;;;5010188;28;20049;-68
2022/12/19 03:38:20;;;;;;;30.55;12.95;;;2.20;99.90;;;;;;5010419;28;20995;-67
2022/12/19 03:40:49;;;;;;;33.17;13.45;;;2.20;99.90;;;;;;5013946;28;20499;-68
2022/12/19 03:43:17;;;;;;;26.10;12.80;;;2.20;99.90;;;;;;5024408;28;20056;-66
2022/12/19 03:45:52;;;;;;;34.13;13.98;;;2.30;99.90;;;;;;5025686;28;20398;-66
2022/12/19 03:48:43;;;;;;;34.95;12.25;;;2.30;99.90;;;;;;5007420;28;20113;-67
2022/12/19 03:51:47;;;;;;;28.63;13.05;;;2.40;99.90;;;;;;5022685;28;20046;-67
2022/12/19 03:54:22;;;;;;;29.58;13.00;;;2.40;99.90;;;;;;5028416;28;20550;-67
2022/12/19 03:57:09;;;;;;;27.40;12.07;;;2.40;99.90;;;;;;5023177;28;20067;-67
2022/12/19 03:59:50;;;;;;;28.43;12.83;;;2.40;99.90;;;;;;5027649;28;20069;-67
2022/12/19 04:02:18;;;;;;;35.83;14.30;;;2.40;99.90;;;;;;5027021;28;20069;-67
2022/12/19 04:04:50;;;;;;;27.15;12.70;;;2.50;99.90;;;;;;5010406;28;20053;-67
2022/12/19 04:07:20;;;;;;;31.95;13.35;;;2.50;99.90;;;;;;5026845;28;20396;-67
2022/12/19 04:09:50;;;;;;;31.55;13.23;;;2.50;99.90;;;;;;4992869;28;20058;-67
2022/12/19 04:12:25;;;;;;;31.45;13.02;;;2.50;99.90;;;;;;5027954;28;20044;-67
2022/12/19 04:14:51;;;;;;;27.60;12.90;;;2.50;99.90;;;;;;5023797;28;20065;-67
2022/12/19 04:17:35;;;;;;;29.87;14.13;;;2.50;99.90;;;;;;5024634;28;20124;-65
2022/12/19 04:20:24;;;;;;;32.97;13.98;;;2.50;99.90;;;;;;5024421;28;20045;-67
2022/12/19 04:23:04;;;;;;;32.08;13.65;;;2.50;99.90;;;;;;5031046;28;20053;-67
2022/12/19 04:25:35;;;;;;;29.30;12.45;;;2.60;99.90;;;;;;5023802;28;20068;-67
2022/12/19 04:28:15;;;;;;;33.53;14.70;;;2.50;99.90;;;;;;5007116;28;20049;-66
2022/12/19 04:30:43;;;;;;;31.60;14.20;;;2.60;99.90;;;;;;5009099;28;20046;-67
2022/12/19 04:33:09;;;;;;;30.10;13.57;;;2.60;99.90;;;;;;5024234;28;20045;-67
2022/12/19 04:35:35;;;;;;;29.80;13.87;;;2.60;99.90;;;;;;5025789;28;20044;-66
2022/12/19 04:38:04;;;;;;;33.97;13.88;;;2.60;99.90;;;;;;5005593;28;20491;-66
2022/12/19 04:40:30;;;;;;;32.92;14.40;;;2.60;99.90;;;;;;4993103;28;20125;-67
2022/12/19 04:42:56;;;;;;;31.80;14.03;;;2.60;99.90;;;;;;5007799;28;20315;-67
2022/12/19 04:45:21;;;;;;;29.57;12.73;;;2.70;99.90;;;;;;5009796;28;20045;-67
2022/12/19 04:47:47;;;;;;;27.33;12.53;;;2.70;99.90;;;;;;5009770;28;20033;-67
2022/12/19 04:50:13;;;;;;;31.30;14.20;;;2.70;99.90;;;;;;5008644;28;20050;-67
2022/12/19 04:52:39;;;;;;;28.03;13.53;;;2.70;99.90;;;;;;5010723;28;20407;-67
2022/12/19 04:55:05;;;;;;;30.95;13.23;;;2.70;99.90;;;;;;4991403;28;20037;-66
2022/12/19 04:57:34;;;;;;;28.08;12.60;;;2.70;99.90;;;;;;5027205;28;20041;-66
2022/12/19 05:00:02;;;;;;;31.40;14.43;;;2.70;99.90;;;;;;5030608;28;20076;-66
2022/12/19 05:02:28;;;;;;;34.15;13.73;;;2.80;99.90;;;;;;5024107;28;20042;-67
2022/12/19 05:04:56;;;;;;;28.55;13.98;;;2.80;99.90;;;;;;5024895;28;20442;-67
2022/12/19 05:07:24;;;;;;;31.08;12.85;;;2.80;99.90;;;;;;5007078;28;20099;-67
2022/12/19 05:09:50;;;;;;;29.63;13.18;;;2.80;99.90;;;;;;5009391;28;20068;-66
2022/12/19 05:12:16;;;;;;;30.60;12.57;;;2.90;99.90;;;;;;5034341;22;20040;-65
2022/12/19 05:14:42;;;;;;;27.47;12.80;;;2.90;99.90;;;;;;5039213;28;20111;-65
2022/12/19 05:17:07;;;;;;;28.70;12.33;;;2.90;99.90;;;;;;5009528;28;20106;-65
2022/12/19 05:19:33;;;;;;;25.70;11.30;;;2.90;99.90;;;;;;5017930;28;20081;-66
2022/12/19 05:21:59;;;;;;;27.38;10.88;;;2.90;99.90;;;;;;5019923;28;20053;-65
2022/12/19 05:24:25;;;;;;;28.53;11.80;;;2.90;99.90;;;;;;5024084;28;20041;-66
2022/12/19 05:26:50;;;;;;;25.47;11.30;;;3.00;99.90;;;;;;5003692;28;20038;-68
2022/12/19 05:29:16;;;;;;;24.50;11.70;;;3.00;99.90;;;;;;5027137;28;20451;-67
2022/12/19 05:31:42;;;;;;;23.70;10.27;;;3.00;99.90;;;;;;5017332;28;20037;-67
2022/12/19 05:34:07;;;;;;;25.27;10.83;;;3.00;99.90;;;;;;5023968;28;20052;-68
2022/12/19 05:36:33;;;;;;;27.47;11.57;;;3.10;99.90;;;;;;5023437;28;20435;-67
2022/12/19 05:38:59;;;;;;;24.23;11.07;;;3.10;99.90;;;;;;5021444;28;20582;-67
2022/12/19 05:41:25;;;;;;;28.40;11.00;;;3.10;99.90;;;;;;4998355;28;20763;-67
2022/12/19 05:43:52;;;;;;;23.40;10.87;;;3.10;99.90;;;;;;5022337;28;20046;-67
2022/12/19 05:46:19;;;;;;;21.17;10.82;;;3.20;99.90;;;;;;5016253;28;20041;-67
2022/12/19 05:48:45;;;;;;;23.80;10.50;;;3.20;99.90;;;;;;5018534;28;20042;-67
2022/12/19 05:51:11;;;;;;;22.98;10.32;;;3.20;99.90;;;;;;5019192;28;20100;-67
2022/12/19 05:53:37;;;;;;;21.90;10.97;;;3.30;99.90;;;;;;5022624;28;20576;-67
2022/12/19 05:56:06;;;;;;;24.15;10.43;;;3.30;99.90;;;;;;5016498;28;20195;-67
2022/12/19 05:58:33;;;;;;;23.63;10.35;;;3.30;99.90;;;;;;5014596;28;20045;-67
2022/12/19 06:01:04;;;;;;;24.95;10.07;;;3.30;99.90;;;;;;5025029;28;20499;-67
2022/12/19 06:03:29;;;;;;;21.00;10.45;;;3.40;99.90;;;;;;5021275;28;20045;-68
2022/12/19 06:05:55;;;;;;;23.20;8.73;;;3.40;99.90;;;;;;5028352;28;20099;-68
2022/12/19 06:08:21;;;;;;;20.92;9.07;;;3.40;99.90;;;;;;5027605;28;20128;-67
2022/12/19 06:10:47;;;;;;;16.03;8.40;;;3.40;99.90;;;;;;5033859;28;20034;-67
2022/12/19 06:13:12;;;;;;;21.27;8.87;;;3.50;99.90;;;;;;5025396;28;20285;-68
2022/12/19 06:15:38;;;;;;;17.10;8.13;;;3.50;99.90;;;;;;5027849;28;20033;-68
2022/12/19 06:18:04;;;;;;;15.03;7.53;;;3.60;99.90;;;;;;5035432;28;20552;-68
2022/12/19 06:20:29;;;;;;;21.27;8.43;;;3.60;99.90;;;;;;5032568;28;20049;-68
2022/12/19 06:22:55;;;;;;;19.97;9.43;;;3.60;99.90;;;;;;5012553;28;20054;-68
2022/12/19 06:25:21;;;;;;;16.47;8.13;;;3.60;99.90;;;;;;5032445;28;20036;-68
2022/12/19 06:27:46;;;;;;;15.73;8.07;;;3.70;99.90;;;;;;5018159;28;20123;-68
2022/12/19 06:30:12;;;;;;;14.47;8.43;;;3.70;99.90;;;;;;5012154;28;20050;-69
2022/12/19 06:32:38;;;;;;;17.33;8.10;;;3.70;99.90;;;;;;4998448;28;20487;-69
2022/12/19 06:35:04;;;;;;;18.30;7.73;;;3.70;99.90;;;;;;5019867;28;20317;-69
2022/12/19 06:37:29;;;;;;;15.13;7.22;;;3.70;99.90;;;;;;5025945;28;20113;-69
2022/12/19 06:39:55;;;;;;;15.87;7.80;;;3.80;99.90;;;;;;5022220;28;20145;-69
2022/12/19 06:42:24;;;;;;;15.03;7.67;;;3.80;99.90;;;;;;5029025;28;20472;-68
2022/12/19 06:44:51;;;;;;;14.50;7.43;;;3.80;99.90;;;;;;5001591;28;20037;-73
2022/12/19 06:47:17;;;;;;;14.10;6.97;;;3.80;99.90;;;;;;5003821;28;20041;-73
2022/12/19 06:49:43;;;;;;;13.32;6.68;;;3.90;99.90;;;;;;5007002;28;20168;-69
2022/12/19 06:52:08;;;;;;;15.10;7.40;;;3.90;99.90;;;;;;5020646;28;20121;-69
2022/12/19 06:54:34;;;;;;;14.53;6.77;;;3.90;99.90;;;;;;5003035;28;20396;-67
2022/12/19 06:57:00;;;;;;;15.87;6.60;;;3.90;99.90;;;;;;4995409;28;20095;-68
2022/12/19 06:59:25;;;;;;;13.73;6.87;;;3.90;99.90;;;;;;5025251;28;20057;-67
2022/12/19 07:02:18;;;;;;;12.10;6.93;;;3.90;99.90;;;;;;5025540;28;20065;-68
2022/12/19 07:04:48;;;;;;;12.57;6.05;;;4.00;99.90;;;;;;5008162;28;20396;-68
2022/12/19 07:07:14;;;;;;;13.00;6.50;;;4.00;99.90;;;;;;5027082;28;20156;-68
2022/12/19 07:09:39;;;;;;;10.10;6.47;;;4.00;99.90;;;;;;5027090;28;20224;-68
2022/12/19 07:12:05;;;;;;;13.13;6.60;;;4.10;99.90;;;;;;5031392;28;20099;-68
2022/12/19 07:14:31;;;;;;;14.38;6.22;;;4.10;99.90;;;;;;5019765;28;20109;-67
2022/12/19 07:17:00;;;;;;;13.33;5.67;;;4.20;99.90;;;;;;5007594;28;20038;-67
2022/12/19 07:19:27;;;;;;;11.65;5.80;;;4.20;99.90;;;;;;5023627;28;20403;-67
2022/12/19 07:21:53;;;;;;;;;;;4.20;99.90;;;;;;5021526;28;20041;-68
2022/12/19 07:24:19;;;;;;;13.18;6.35;;;4.30;99.90;;;;;;5027358;28;19924;-67
2022/12/19 07:26:44;;;;;;;11.67;5.83;;;4.30;99.90;;;;;;5025610;28;20045;-67
2022/12/19 07:29:11;;;;;;;9.93;5.73;;;4.40;99.90;;;;;;5008536;28;20499;-67
2022/12/19 07:31:37;;;;;;;;;;;4.40;99.90;;;;;;5018206;28;20545;-68
2022/12/19 07:34:02;;;;;;;12.00;6.05;;;4.40;99.90;;;;;;5010560;28;19963;-67
2022/12/19 07:36:28;;;;;;;9.73;4.67;;;4.50;99.90;;;;;;5022409;28;20029;-67
2022/12/19 07:38:53;;;;;;;12.60;5.83;;;4.50;99.90;;;;;;5022580;28;20041;-68
2022/12/19 07:41:19;;;;;;;8.93;4.90;;;4.50;99.90;;;;;;5021690;28;20041;-68
2022/12/19 07:43:46;;;;;;;12.03;5.83;;;4.60;99.90;;;;;;5023682;28;20509;-68
2022/12/19 07:46:12;;;;;;;12.13;5.88;;;4.60;99.90;;;;;;5025643;28;20121;-68
2022/12/19 07:48:38;;;;;;;12.90;6.00;;;4.70;99.90;;;;;;5021961;28;20494;-68
2022/12/19 07:51:04;;;;;;;11.37;5.70;;;4.70;99.90;;;;;;5021900;28;20128;-68
2022/12/19 07:53:30;;;;;;;11.65;5.65;;;4.80;99.90;;;;;;5023940;28;20042;-68
2022/12/19 07:55:56;;;;;;;10.45;5.82;;;4.90;99.90;;;;;;4994808;28;20093;-68
2022/12/19 07:58:22;;;;;;;9.10;5.00;;;4.90;99.90;;;;;;5022920;28;20041;-68
2022/12/19 08:01:01;;;;;;;10.20;5.80;;;4.90;99.90;;;;;;5020346;28;20101;-68
2022/12/19 08:03:30;;;;;;;11.07;5.78;;;5.00;99.90;;;;;;5024232;28;20226;-68
2022/12/19 08:06:00;;;;;;;9.10;5.35;;;5.00;99.90;;;;;;5027471;28;20422;-68
2022/12/19 08:08:26;;;;;;;8.43;4.50;;;5.00;99.90;;;;;;5013360;28;20072;-68
2022/12/19 08:10:52;;;;;;;9.60;5.32;;;5.10;99.90;;;;;;5022842;28;20061;-68
2022/12/19 08:13:17;;;;;;;8.73;4.73;;;5.10;99.90;;;;;;5008995;28;20132;-68
2022/12/19 08:15:43;;;;;;;10.20;5.13;;;5.20;99.90;;;;;;5020705;28;20554;-67
2022/12/19 08:18:09;;;;;;;9.20;4.83;;;5.20;99.90;;;;;;5023631;28;20106;-68
2022/12/19 08:20:34;;;;;;;7.80;4.27;;;5.30;99.90;;;;;;5002521;28;20053;-67
2022/12/19 08:23:00;;;;;;;6.77;4.00;;;5.30;99.90;;;;;;5021836;28;20144;-67
2022/12/19 08:25:25;;;;;;;7.20;3.93;;;5.30;99.90;;;;;;5015419;28;20097;-68
2022/12/19 08:27:51;;;;;;;7.37;4.23;;;5.40;99.90;;;;;;5008600;28;20034;-68
2022/12/19 08:30:17;;;;;;;8.10;4.50;;;5.40;99.90;;;;;;5020610;28;20519;-68
2022/12/19 08:32:44;;;;;;;8.20;4.57;;;5.50;99.90;;;;;;5017739;28;20068;-67
2022/12/19 08:35:10;;;;;;;9.10;4.60;;;5.50;99.90;;;;;;5022366;28;20334;-67
2022/12/19 08:37:35;;;;;;;11.13;4.72;;;5.50;99.90;;;;;;5024730;28;20446;-68
2022/12/19 08:40:01;;;;;;;6.70;4.37;;;5.60;99.90;;;;;;5016326;28;20073;-67
2022/12/19 08:42:27;;;;;;;9.13;4.83;;;5.70;99.90;;;;;;5013337;28;20045;-68
2022/12/19 08:44:52;;;;;;;8.47;4.43;;;5.70;99.90;;;;;;5026081;28;20079;-67
2022/12/19 08:47:18;;;;;;;8.87;4.67;;;5.80;99.90;;;;;;5025664;28;20037;-68
2022/12/19 08:49:44;;;;;;;7.73;4.23;;;5.80;99.90;;;;;;5025211;28;20311;-68
2022/12/19 08:52:09;;;;;;;10.10;5.30;;;5.80;99.90;;;;;;4995572;28;20037;-68
2022/12/19 08:54:35;;;;;;;9.60;5.20;;;5.90;99.90;;;;;;5012966;28;20038;-68
2022/12/19 08:57:01;;;;;;;8.32;4.50;;;6.00;99.90;;;;;;5021460;28;20044;-67
2022/12/19 08:59:26;;;;;;;8.30;5.20;;;6.10;99.90;;;;;;5000246;28;20148;-67
2022/12/19 09:01:52;;;;;;;7.90;4.43;;;6.10;99.90;;;;;;5024977;28;20056;-68
2022/12/19 09:04:17;;;;;;;8.60;4.73;;;6.10;99.90;;;;;;5008500;28;20083;-68
2022/12/19 09:06:43;;;;;;;7.70;5.00;;;6.20;99.90;;;;;;5019821;28;20498;-68
2022/12/19 09:09:09;;;;;;;6.93;4.53;;;6.20;99.90;;;;;;5004744;28;20053;-68
2022/12/19 09:11:34;;;;;;;7.73;4.63;;;6.20;99.90;;;;;;5017247;28;20560;-68
2022/12/19 09:14:00;;;;;;;8.70;5.20;;;6.30;99.90;;;;;;5020342;28;20509;-68
2022/12/19 09:16:27;;;;;;;9.30;5.67;;;6.30;99.90;;;;;;5024886;28;20037;-68
2022/12/19 09:18:57;;;;;;;10.57;5.63;;;6.30;99.90;;;;;;5012863;28;20041;-69
2022/12/19 09:21:27;;;;;;;11.75;5.82;;;6.30;99.90;;;;;;5010669;28;20048;-67
2022/12/19 09:23:55;;;;;;;10.25;6.03;;;6.40;99.90;;;;;;5016494;28;20049;-67
2022/12/19 09:26:23;;;;;;;13.63;6.38;;;6.40;99.90;;;;;;5020847;28;20045;-68
2022/12/19 09:28:49;;;;;;;9.15;5.40;;;6.40;99.90;;;;;;5021162;28;20045;-68
2022/12/19 09:31:24;;;;;;;9.73;5.70;;;6.50;99.90;;;;;;5023148;28;20103;-67
2022/12/19 09:33:51;;;;;;;9.98;5.80;;;6.50;99.90;;;;;;4999676;28;20181;-68
2022/12/19 09:36:18;;;;;;;;;;;6.50;99.90;;;;;;5017520;28;20076;-68
2022/12/19 09:38:44;;;;;;;12.23;6.60;;;6.60;99.90;;;;;;5029079;28;19931;-68
2022/12/19 09:41:29;;;;;;;13.43;6.83;;;6.60;99.90;;;;;;5021456;28;20045;-68
2022/12/19 09:44:18;;;;;;;8.60;5.65;;;6.70;99.90;;;;;;5023632;28;20275;-68
2022/12/19 09:46:51;;;;;;;9.95;6.15;;;6.80;99.90;;;;;;5026561;28;20296;-68
2022/12/19 09:49:23;;;;;;;11.25;7.00;;;6.80;99.90;;;;;;5021501;28;20124;-68
2022/12/19 09:51:55;;;;;;;11.18;6.50;;;6.90;99.90;;;;;;5013120;28;20054;-68
2022/12/19 09:54:31;;;;;;;10.25;6.28;;;6.90;99.90;;;;;;5016996;28;20065;-69
2022/12/19 09:57:02;;;;;;;11.65;5.88;;;6.90;99.90;;;;;;5020820;28;20192;-68
2022/12/19 09:59:43;;;;;;;11.80;6.28;;;7.00;99.90;;;;;;5007317;28;20154;-68
2022/12/19 10:02:27;;;;;;;11.25;7.07;;;7.00;99.90;;;;;;5030881;28;20091;-69
2022/12/19 10:05:11;;;;;;;10.82;6.25;;;7.00;99.90;;;;;;4989421;28;20045;-70
2022/12/19 10:07:37;;;;;;;10.60;6.53;;;7.00;99.90;;;;;;5014119;28;20056;-68
2022/12/19 10:10:03;;;;;;;12.07;6.87;;;7.10;99.90;;;;;;5006952;28;20042;-69
2022/12/19 10:12:28;;;;;;;12.35;6.70;;;7.10;99.90;;;;;;5025040;28;20042;-69
2022/12/19 10:15:04;;;;;;;13.97;7.00;;;7.20;99.90;;;;;;5000330;28;20057;-69
2022/12/19 10:17:47;;;;;;;10.45;5.95;;;7.20;99.90;;;;;;5016948;28;20184;-69
2022/12/19 10:20:28;;;;;;;11.57;6.13;;;7.20;99.90;;;;;;5021060;28;20046;-68
2022/12/19 10:22:58;;;;;;;12.00;6.38;;;7.30;99.90;;;;;;5000527;28;20125;-68
2022/12/19 10:25:33;;;;;;;11.55;6.65;;;7.30;99.90;;;;;;5021883;28;20077;-68
2022/12/19 10:28:31;;;;;;;12.05;6.20;;;7.30;99.90;;;;;;5022317;28;20038;-69
2022/12/19 10:31:22;;;;;;;10.73;6.22;;;7.40;99.90;;;;;;5020783;28;20041;-69
2022/12/19 10:34:21;;;;;;;11.80;6.30;;;7.40;99.90;;;;;;5004565;28;20049;-69
2022/12/19 10:36:54;;;;;;;12.18;6.53;;;7.50;99.90;;;;;;5020011;28;20076;-69
2022/12/19 10:39:25;;;;;;;9.85;5.63;;;7.50;99.90;;;;;;5008031;28;20045;-69
2022/12/19 10:41:55;;;;;;;11.73;6.03;;;7.50;99.90;;;;;;4994396;28;20110;-69
2022/12/19 10:44:23;;;;;;;12.27;6.25;;;7.50;99.90;;;;;;5022054;28;20116;-69
2022/12/19 10:46:49;;;;;;;13.45;5.63;;;7.60;99.90;;;;;;5026453;28;20049;-70
2022/12/19 10:49:24;;;;;;;9.05;6.22;;;7.60;99.90;;;;;;5019492;28;20042;-69
2022/12/19 10:52:02;;;;;;;11.43;6.00;;;7.60;99.90;;;;;;4993656;28;20442;-69
2022/12/19 10:54:37;;;;;;;8.63;5.18;;;7.70;99.90;;;;;;5019857;28;20081;-71
2022/12/19 10:57:26;;;;;;;10.38;5.43;;;7.70;99.90;;;;;;5001325;28;20049;-70
2022/12/19 11:00:00;;;;;;;10.52;5.88;;;7.70;99.90;;;;;;5027468;28;20099;-70
2022/12/19 11:02:38;;;;;;;12.65;5.90;;;7.70;99.90;;;;;;5000939;28;20104;-69
2022/12/19 11:05:26;;;;;;;9.95;5.55;;;7.80;99.90;;;;;;5015818;28;20073;-68
2022/12/19 11:08:06;;;;;;;;;;;7.80;99.90;;;;;;5023772;28;20567;-67
2022/12/19 11:10:36;;;;;;;10.85;5.03;;;7.80;99.90;;;;;;5020068;28;19921;-67
2022/12/19 11:13:14;;;;;;;7.97;5.35;;;7.80;99.90;;;;;;5096674;22;20132;-70
2022/12/19 11:15:47;;;;;;;8.75;5.22;;;7.80;99.90;;;;;;5036715;28;20163;-71
2022/12/19 11:18:13;;;;;;;9.68;5.30;;;7.80;99.90;;;;;;5019158;28;20359;-70
2022/12/19 11:20:39;;;;;;;8.95;5.53;;;7.90;99.90;;;;;;5015175;28;20045;-70
2022/12/19 11:23:11;;;;;;;10.70;5.50;;;7.90;99.90;;;;;;5028043;28;20048;-74
2022/12/19 11:25:40;;;;;;;11.07;5.45;;;7.80;99.90;;;;;;5008673;28;20120;-70
2022/12/19 11:28:19;;;;;;;9.52;4.93;;;7.90;99.90;;;;;;5027441;28;20387;-76
2022/12/19 11:30:58;;;;;;;8.20;4.88;;;7.90;99.90;;;;;;5005368;28;20042;-69
2022/12/19 11:33:24;;;;;;;10.23;5.75;;;7.90;99.90;;;;;;5006475;28;20045;-70
2022/12/19 11:35:57;;;;;;;12.10;6.07;;;8.00;99.90;;;;;;5008374;28;20044;-70
2022/12/19 11:38:44;;;;;;;8.45;5.28;;;8.00;99.90;;;;;;5007451;28;20052;-70
2022/12/19 11:41:13;;;;;;;9.80;4.88;;;8.00;99.90;;;;;;5005749;28;20037;-71
2022/12/19 11:43:52;;;;;;;12.50;5.05;;;8.00;99.90;;;;;;5021643;28;20056;-71
2022/12/19 11:46:35;;;;;;;8.20;5.28;;;8.00;99.90;;;;;;5025808;28;20092;-71
2022/12/19 11:49:27;;;;;;;14.32;5.30;;;8.00;99.90;;;;;;5000583;28;20048;-70
2022/12/19 11:52:08;;;;;;;11.07;5.78;;;8.00;99.90;;;;;;5025209;28;20129;-70
2022/12/19 11:54:51;;;;;;;9.45;5.07;;;8.00;99.90;;;;;;5007605;28;20090;-70
2022/12/19 11:57:17;;;;;;;13.45;5.93;;;8.10;99.90;;;;;;5006209;28;20076;-70
2022/12/19 11:59:45;;;;;;;8.90;4.88;;;8.10;99.90;;;;;;5018077;28;20093;-70
2022/12/19 12:02:29;;;;;;;7.60;5.30;;;8.10;99.90;;;;;;5007449;28;20076;-70
2022/12/19 12:05:14;;;;;;;7.57;4.50;;;8.00;99.90;;;;;;5008471;28;20407;-70
2022/12/19 12:07:40;;;;;;;10.77;5.85;;;8.10;99.90;;;;;;5008488;28;20037;-70
2022/12/19 12:10:18;;;;;;;13.33;4.67;;;8.10;99.90;;;;;;5025368;28;20080;-70
2022/12/19 12:13:03;;;;;;;8.75;5.20;;;8.10;99.90;;;;;;5028162;28;20049;-70
2022/12/19 12:15:41;;;;;;;13.20;5.65;;;8.10;99.90;;;;;;5020347;28;20088;-70
2022/12/19 12:18:31;;;;;;;6.97;4.97;;;8.10;99.90;;;;;;5019537;28;20110;-70
2022/12/19 12:20:59;;;;;;;10.27;5.15;;;8.20;99.90;;;;;;5010401;28;20076;-70
2022/12/19 12:23:38;;;;;;;7.93;4.72;;;8.20;99.90;;;;;;5011992;28;20038;-74
2022/12/19 12:26:31;;;;;;;9.07;5.43;;;8.20;99.90;;;;;;5014636;28;20160;-72
2022/12/19 12:29:13;;;;;;;8.93;5.43;;;8.20;99.90;;;;;;5010351;28;20183;-71
2022/12/19 12:31:52;;;;;;;10.48;5.65;;;8.20;99.90;;;;;;4996134;28;21992;-71
2022/12/19 12:34:39;;;;;;;7.68;4.95;;;8.20;99.90;;;;;;5011036;28;20128;-71
2022/12/19 12:37:24;;;;;;;8.05;4.55;;;8.20;99.90;;;;;;5027242;28;20037;-71
2022/12/19 12:40:19;;;;;;;7.25;4.18;;;8.20;99.90;;;;;;4999919;28;20041;-70
2022/12/19 12:43:03;;;;;;;8.10;4.30;;;8.20;99.90;;;;;;5002691;28;20095;-71
2022/12/19 12:45:36;;;;;;;7.90;4.25;;;8.30;99.90;;;;;;4988696;28;20056;-69
2022/12/19 12:48:13;;;;;;;8.45;4.50;;;8.20;99.90;;;;;;5024732;28;20119;-69
2022/12/19 12:50:40;;;;;;;8.53;4.57;;;8.30;99.90;;;;;;5001661;28;20103;-70
2022/12/19 12:53:08;;;;;;;5.97;4.03;;;8.20;99.90;;;;;;5014276;28;20469;-69
2022/12/19 12:55:43;;;;;;;8.85;4.18;;;8.30;99.90;;;;;;5024236;28;20096;-69
2022/12/19 12:59:01;;;;;;;7.22;4.50;;;8.40;99.90;;;;;;5020165;28;20034;-69
2022/12/19 13:01:26;;;;;;;9.68;4.45;;;8.40;99.90;;;;;;5021739;28;20038;-69
2022/12/19 13:04:03;;;;;;;8.50;4.70;;;8.40;99.90;;;;;;5011349;28;20029;-69
2022/12/19 13:06:36;;;;;;;7.25;4.82;;;8.40;99.90;;;;;;5033926;28;20115;-69